createdAt,value
2018-11-28T00:00:14.070Z,15.90
2018-11-28T00:02:42.553Z,16.10
2018-11-28T00:05:12.045Z,15.30
2018-11-28T00:07:41.046Z,17.10
2018-11-28T00:10:11.951Z,17.43
2018-11-28T00:12:40.529Z,15.67
2018-11-28T00:15:12.220Z,16.87
2018-11-28T00:17:40.731Z,15.60
2018-11-28T00:20:18.727Z,16.13
2018-11-28T00:22:47.335Z,16.57
2018-11-28T00:25:16.379Z,17.00
2018-11-28T00:27:44.869Z,16.10
2018-11-28T00:30:16.143Z,17.10
2018-11-28T00:32:44.627Z,17.00
2018-11-28T00:35:14.209Z,15.67
2018-11-28T00:37:42.662Z,17.05
2018-11-28T00:40:13.146Z,16.97
2018-11-28T00:42:41.730Z,13.90
2018-11-28T00:45:13.366Z,16.83
2018-11-28T00:47:42.178Z,16.97
2018-11-28T00:50:11.838Z,16.90
2018-11-28T00:52:40.274Z,17.10
2018-11-28T00:55:12.046Z,17.20
2018-11-28T00:57:40.505Z,16.27
2018-11-28T01:00:14.502Z,17.63
2018-11-28T01:02:42.989Z,16.73
2018-11-28T01:05:12.239Z,18.43
2018-11-28T01:07:40.975Z,17.70
2018-11-28T01:10:11.848Z,17.40
2018-11-28T01:12:40.287Z,17.07
2018-11-28T01:15:11.150Z,18.93
2018-11-28T01:17:39.708Z,16.90
2018-11-28T01:20:09.952Z,18.00
2018-11-28T01:22:38.410Z,17.30
2018-11-28T01:25:09.185Z,17.10
2018-11-28T01:27:37.710Z,17.20
2018-11-28T01:30:10.169Z,18.83
2018-11-28T01:32:38.614Z,16.93
2018-11-28T01:35:08.652Z,18.10
2018-11-28T01:37:37.466Z,17.90
2018-11-28T01:40:10.083Z,18.90
2018-11-28T01:42:38.554Z,17.47
2018-11-28T01:45:07.813Z,17.17
2018-11-28T01:47:36.205Z,16.80
2018-11-28T01:50:06.023Z,17.47
2018-11-28T01:52:34.450Z,17.70
2018-11-28T01:55:02.865Z,18.30
2018-11-28T01:57:31.309Z,18.07
2018-11-28T01:59:59.694Z,17.77
2018-11-28T02:02:28.179Z,17.60
2018-11-28T02:04:56.718Z,17.27
2018-11-28T02:07:25.160Z,16.57
2018-11-28T02:09:53.618Z,16.90
2018-11-28T02:12:22.313Z,17.63
2018-11-28T02:14:50.742Z,17.93
2018-11-28T02:17:19.174Z,18.00
2018-11-28T02:19:47.608Z,17.13
2018-11-28T02:22:16.046Z,17.40
2018-11-28T02:24:44.460Z,17.63
2018-11-28T02:27:13.012Z,18.77
2018-11-28T02:29:41.429Z,19.20
2018-11-28T02:32:09.844Z,18.47
2018-11-28T02:34:38.267Z,18.07
2018-11-28T02:37:06.738Z,17.97
2018-11-28T02:39:35.171Z,17.47
2018-11-28T02:42:03.607Z,18.30
2018-11-28T02:44:32.080Z,16.30
2018-11-28T02:47:00.519Z,17.10
2018-11-28T02:49:28.946Z,18.27
2018-11-28T02:51:57.358Z,17.83
2018-11-28T02:54:26.155Z,17.07
2018-11-28T02:56:54.596Z,19.45
2018-11-28T02:59:23.031Z,18.17
2018-11-28T03:01:51.487Z,18.20
2018-11-28T03:04:19.936Z,17.83
2018-11-28T03:06:48.352Z,17.27
2018-11-28T03:09:16.763Z,18.33
2018-11-28T03:11:45.192Z,16.83
2018-11-28T03:14:13.663Z,17.57
2018-11-28T03:16:42.047Z,17.80
2018-11-28T03:19:10.461Z,17.13
2018-11-28T03:21:38.943Z,17.33
2018-11-28T03:24:07.511Z,17.00
2018-11-28T03:26:35.915Z,16.90
2018-11-28T03:29:04.321Z,17.77
2018-11-28T03:31:32.749Z,16.77
2018-11-28T03:34:01.290Z,18.20
2018-11-28T03:36:29.685Z,19.15
2018-11-28T03:38:58.081Z,18.80
2018-11-28T03:41:26.761Z,17.43
2018-11-28T03:43:55.154Z,18.03
2018-11-28T03:46:23.564Z,18.10
2018-11-28T03:48:52.032Z,17.93
2018-11-28T03:51:20.470Z,18.13
2018-11-28T03:53:48.899Z,15.73
2018-11-28T03:56:17.682Z,18.17
2018-11-28T03:58:46.122Z,18.27
2018-11-28T04:01:14.603Z,17.50
2018-11-28T04:03:43.016Z,17.43
2018-11-28T04:06:11.453Z,19.50
2018-11-28T04:08:39.881Z,18.33
2018-11-28T04:11:08.347Z,18.80
2018-11-28T04:13:36.786Z,17.90
2018-11-28T04:16:05.607Z,18.07
2018-11-28T04:18:34.056Z,18.77
2018-11-28T04:21:02.613Z,16.77
2018-11-28T04:23:31.064Z,17.47
2018-11-28T04:25:59.515Z,17.97
2018-11-28T04:28:27.973Z,18.13
2018-11-28T04:30:56.390Z,17.80
2018-11-28T04:33:24.790Z,18.50
2018-11-28T04:35:53.650Z,17.60
2018-11-28T04:38:22.072Z,18.23
2018-11-28T04:40:50.507Z,14.07
2018-11-28T04:43:18.934Z,18.33
2018-11-28T04:45:47.349Z,17.83
2018-11-28T04:48:15.743Z,18.50
2018-11-28T04:50:44.182Z,16.60
2018-11-28T04:53:12.590Z,18.43
2018-11-28T04:55:41.006Z,18.83
2018-11-28T04:58:09.470Z,18.37
2018-11-28T05:00:37.883Z,19.13
2018-11-28T05:03:06.739Z,18.97
2018-11-28T05:05:35.155Z,18.60
2018-11-28T05:08:03.634Z,19.77
2018-11-28T05:10:32.054Z,19.47
2018-11-28T05:13:00.976Z,20.40
2018-11-28T05:15:33.282Z,17.93
2018-11-28T05:18:01.848Z,19.23
2018-11-28T05:20:31.725Z,18.67
2018-11-28T05:23:00.203Z,19.07
2018-11-28T05:25:29.594Z,19.87
2018-11-28T05:27:58.828Z,20.12
2018-11-28T05:30:28.267Z,19.37
2018-11-28T05:32:56.883Z,20.20
2018-11-28T05:35:29.848Z,19.53
2018-11-28T05:37:58.718Z,19.80
2018-11-28T05:40:27.882Z,19.82
2018-11-28T05:42:56.841Z,22.13
2018-11-28T05:45:25.334Z,19.87
2018-11-28T05:47:53.814Z,21.27
2018-11-28T05:50:22.738Z,18.90
2018-11-28T05:52:51.299Z,20.20
2018-11-28T05:55:20.952Z,19.30
2018-11-28T05:57:49.494Z,19.07
2018-11-28T06:00:25.953Z,19.97
2018-11-28T06:02:54.482Z,19.97
2018-11-28T06:05:23.020Z,19.70
2018-11-28T06:07:52.056Z,20.07
2018-11-28T06:10:20.595Z,19.63
2018-11-28T06:12:49.114Z,19.47
2018-11-28T06:15:17.562Z,19.17
2018-11-28T06:17:46.075Z,19.33
2018-11-28T06:20:15.367Z,19.30
2018-11-28T06:22:43.982Z,16.37
2018-11-28T06:25:16.299Z,19.00
2018-11-28T06:27:42.142Z,22.22
2018-11-28T06:30:13.845Z,20.77
2018-11-28T06:32:42.420Z,19.93
2018-11-28T06:35:11.359Z,19.10
2018-11-28T06:37:40.269Z,20.70
2018-11-28T06:40:10.375Z,19.07
2018-11-28T06:42:38.888Z,20.43
2018-11-28T06:45:11.997Z,20.17
2018-11-28T06:47:40.479Z,19.83
2018-11-28T06:50:12.795Z,21.03
2018-11-28T06:52:41.505Z,20.77
2018-11-28T06:55:13.340Z,19.33
2018-11-28T06:57:41.938Z,20.97
2018-11-28T07:00:25.715Z,19.20
2018-11-28T07:02:54.523Z,19.97
2018-11-28T07:05:23.563Z,20.10
2018-11-28T07:07:52.469Z,21.07
2018-11-28T07:10:21.995Z,20.83
2018-11-28T07:12:50.566Z,20.03
2018-11-28T07:15:23.197Z,20.87
2018-11-28T07:17:51.704Z,20.63
2018-11-28T07:20:20.209Z,21.07
2018-11-28T07:22:48.776Z,20.07
2018-11-28T07:25:20.100Z,20.93
2018-11-28T07:27:49.121Z,20.50
2018-11-28T07:30:19.596Z,19.23
2018-11-28T07:32:48.998Z,20.20
2018-11-28T07:35:17.518Z,19.97
2018-11-28T07:37:45.992Z,19.70
2018-11-28T07:40:17.573Z,19.93
2018-11-28T07:42:51.957Z,21.47
2018-11-28T07:45:20.494Z,20.33
2018-11-28T07:47:48.992Z,20.00
2018-11-28T07:50:17.463Z,21.43
2018-11-28T07:52:45.975Z,19.43
2018-11-28T07:55:14.505Z,21.27
2018-11-28T07:57:43.032Z,19.47
2018-11-28T08:00:14.445Z,19.53
2018-11-28T08:02:43.560Z,19.60
2018-11-28T08:05:12.527Z,20.40
2018-11-28T08:07:41.072Z,19.20
2018-11-28T08:10:19.203Z,19.73
2018-11-28T08:12:47.852Z,18.90
2018-11-28T08:15:16.416Z,19.70
2018-11-28T08:17:44.963Z,19.83
2018-11-28T08:20:13.535Z,20.10
2018-11-28T08:22:42.029Z,18.97
2018-11-28T08:25:12.864Z,21.00
2018-11-28T08:27:40.770Z,19.27
2018-11-28T08:30:16.588Z,19.27
2018-11-28T08:32:45.131Z,20.40
2018-11-28T08:35:14.574Z,18.63
2018-11-28T08:37:43.117Z,20.10
2018-11-28T08:40:15.558Z,18.27
2018-11-28T08:42:44.057Z,19.07
2018-11-28T08:45:15.710Z,20.33
2018-11-28T08:47:45.067Z,19.50
2018-11-28T08:50:16.691Z,19.10
2018-11-28T08:52:45.311Z,19.40
2018-11-28T08:55:14.183Z,19.53
2018-11-28T08:57:42.764Z,20.60
2018-11-28T09:00:26.992Z,19.33
2018-11-28T09:02:56.577Z,20.43
2018-11-28T09:05:25.156Z,19.60
2018-11-28T09:07:53.706Z,19.13
2018-11-28T09:10:22.242Z,20.20
2018-11-28T09:12:51.035Z,19.50
2018-11-28T09:15:28.942Z,19.63
2018-11-28T09:17:57.673Z,19.53
2018-11-28T09:20:26.255Z,19.47
2018-11-28T09:22:54.759Z,19.43
2018-11-28T09:25:23.277Z,19.47
2018-11-28T09:27:53.134Z,21.90
2018-11-28T09:30:21.629Z,20.10
2018-11-28T09:32:50.662Z,20.47
2018-11-28T09:35:19.478Z,19.43
2018-11-28T09:37:48.014Z,19.83
2018-11-28T09:40:23.572Z,20.27
2018-11-28T09:42:53.177Z,20.03
2018-11-28T09:45:21.903Z,18.53
2018-11-28T09:47:50.429Z,19.90
2018-11-28T09:50:21.022Z,19.37
2018-11-28T09:52:49.544Z,19.17
2018-11-28T09:55:20.220Z,20.30
2018-11-28T09:57:48.851Z,20.40
2018-11-28T10:00:22.131Z,19.17
2018-11-28T10:02:52.661Z,19.73
2018-11-28T10:05:22.421Z,20.13
2018-11-28T10:07:51.012Z,18.93
2018-11-28T10:10:19.540Z,20.20
2018-11-28T10:12:48.070Z,18.63
2018-11-28T10:15:19.469Z,19.40
2018-11-28T10:17:48.083Z,17.63
2018-11-28T10:20:17.219Z,18.77
2018-11-28T10:22:46.111Z,18.23
2018-11-28T10:25:17.478Z,19.07
2018-11-28T10:27:47.343Z,19.07
2018-11-28T10:30:18.137Z,17.70
2018-11-28T10:32:46.979Z,17.73
2018-11-28T10:35:15.498Z,18.53
2018-11-28T10:37:43.951Z,18.67
2018-11-28T10:40:15.816Z,18.10
2018-11-28T10:42:44.371Z,17.07
2018-11-28T10:45:14.238Z,17.30
2018-11-28T10:47:42.778Z,17.50
2018-11-28T10:50:12.650Z,17.73
2018-11-28T10:52:41.162Z,17.27
2018-11-28T10:55:11.258Z,18.13
2018-11-28T10:57:39.746Z,17.07
2018-11-28T11:00:17.086Z,17.03
2018-11-28T11:02:50.863Z,17.27
2018-11-28T11:05:24.568Z,17.07
2018-11-28T11:07:58.560Z,18.23
2018-11-28T11:10:32.356Z,16.93
2018-11-28T11:13:06.226Z,17.27
2018-11-28T11:15:34.759Z,17.87
2018-11-28T11:18:03.315Z,12.90
2018-11-28T11:20:31.945Z,16.67
2018-11-28T11:23:00.498Z,16.73
2018-11-28T11:25:29.291Z,16.17
2018-11-28T11:27:57.905Z,16.60
2018-11-28T11:30:26.523Z,15.70
2018-11-28T11:32:55.078Z,15.73
2018-11-28T11:35:23.629Z,16.13
2018-11-28T11:37:52.150Z,15.77
2018-11-28T11:40:20.676Z,14.63
2018-11-28T11:42:49.290Z,15.27
2018-11-28T11:45:17.798Z,15.60
2018-11-28T11:47:46.381Z,15.03
2018-11-28T11:50:17.006Z,15.85
2018-11-28T11:52:46.943Z,15.17
2018-11-28T11:55:16.775Z,15.27
2018-11-28T11:57:46.288Z,14.70
2018-11-28T12:00:18.197Z,14.33
2018-11-28T12:02:51.894Z,15.40
2018-11-28T12:05:21.114Z,14.97
2018-11-28T12:07:49.406Z,14.13
2018-11-28T12:10:18.145Z,15.40
2018-11-28T12:12:51.647Z,13.70
2018-11-28T12:15:17.105Z,15.30
2018-11-28T12:17:47.063Z,14.03
2018-11-28T12:20:22.365Z,13.97
2018-11-28T12:22:51.016Z,14.87
2018-11-28T12:25:19.546Z,14.60
2018-11-28T12:27:48.164Z,15.35
2018-11-28T12:30:16.975Z,14.93
2018-11-28T12:32:45.967Z,13.73
2018-11-28T12:35:16.355Z,14.30
2018-11-28T12:37:46.289Z,14.47
2018-11-28T12:40:17.469Z,16.47
2018-11-28T12:42:50.993Z,15.37
2018-11-28T12:45:20.522Z,14.73
2018-11-28T12:47:49.719Z,15.07
2018-11-28T12:50:20.496Z,14.57
2018-11-28T12:52:49.141Z,15.80
2018-11-28T12:55:19.000Z,14.67
2018-11-28T12:57:47.755Z,15.07
2018-11-28T13:00:20.438Z,14.90
2018-11-28T13:02:49.091Z,14.33
2018-11-28T13:05:19.547Z,13.87
2018-11-28T13:07:48.101Z,14.97
2018-11-28T13:10:48.175Z,15.13
2018-11-28T13:13:18.056Z,14.47
2018-11-28T13:15:45.481Z,14.20
2018-11-28T13:18:14.121Z,18.33
2018-11-28T13:20:43.054Z,14.40
2018-11-28T13:23:13.259Z,17.27
2018-11-28T13:25:42.199Z,16.50
2018-11-28T13:28:10.767Z,14.07
2018-11-28T13:30:39.507Z,13.83
2018-11-28T13:33:08.977Z,12.97
2018-11-28T13:35:37.519Z,14.57
2018-11-28T13:38:09.547Z,13.23
2018-11-28T13:40:38.280Z,13.60
2018-11-28T13:43:06.984Z,13.07
2018-11-28T13:45:40.771Z,13.53
2018-11-28T13:48:09.365Z,13.80
2018-11-28T13:50:37.925Z,13.10
2018-11-28T13:53:08.827Z,13.97
2018-11-28T13:55:41.131Z,13.93
2018-11-28T13:58:07.703Z,14.17
2018-11-28T14:00:36.174Z,13.27
2018-11-28T14:03:04.829Z,13.67
2018-11-28T14:05:33.713Z,13.50
2018-11-28T14:08:02.247Z,12.97
2018-11-28T14:10:30.754Z,13.93
2018-11-28T14:12:59.301Z,14.47
2018-11-28T14:15:27.846Z,14.03
2018-11-28T14:18:00.768Z,14.97
2018-11-28T14:20:29.320Z,15.33
2018-11-28T14:22:57.843Z,15.17
2018-11-28T14:25:26.846Z,14.30
2018-11-28T14:27:55.412Z,14.80
2018-11-28T14:30:25.244Z,14.60
2018-11-28T14:32:53.269Z,15.03
2018-11-28T14:35:22.631Z,14.50
2018-11-28T14:37:51.205Z,13.97
2018-11-28T14:40:21.630Z,14.77
2018-11-28T14:42:51.330Z,14.57
2018-11-28T14:45:20.199Z,14.77
2018-11-28T14:47:49.667Z,14.93
2018-11-28T14:50:20.178Z,14.63
2018-11-28T14:52:48.726Z,14.37
2018-11-28T14:55:18.537Z,14.37
2018-11-28T14:57:47.038Z,14.80
2018-11-28T15:00:17.878Z,14.70
2018-11-28T15:02:47.822Z,14.73
2018-11-28T15:05:41.462Z,15.57
2018-11-28T15:08:12.417Z,15.37
2018-11-28T15:10:52.651Z,15.43
2018-11-28T15:13:21.163Z,15.17
2018-11-28T15:15:49.695Z,15.63
2018-11-28T15:18:18.217Z,16.67
2018-11-28T15:20:46.737Z,16.17
2018-11-28T15:23:15.237Z,16.07
2018-11-28T15:25:43.841Z,17.92
2018-11-28T15:28:12.485Z,16.33
2018-11-28T15:30:40.994Z,16.47
2018-11-28T15:33:09.525Z,15.90
2018-11-28T15:35:39.809Z,16.37
2018-11-28T15:38:08.912Z,16.20
2018-11-28T15:40:37.355Z,16.53
2018-11-28T15:43:05.858Z,17.47
2018-11-28T15:45:34.703Z,17.33
2018-11-28T15:48:03.546Z,17.37
2018-11-28T15:50:33.524Z,17.83
2018-11-28T15:53:02.100Z,18.43
2018-11-28T15:55:30.836Z,18.67
2018-11-28T15:57:59.457Z,18.90
2018-11-28T16:00:28.230Z,19.47
2018-11-28T16:02:56.869Z,19.00
2018-11-28T16:05:25.455Z,19.20
2018-11-28T16:07:55.456Z,20.20
2018-11-28T16:10:29.386Z,19.47
2018-11-28T16:12:57.980Z,19.87
2018-11-28T16:15:30.142Z,20.57
2018-11-28T16:18:00.072Z,19.83
2018-11-28T16:20:28.628Z,19.20
2018-11-28T16:23:04.312Z,20.47
2018-11-28T16:25:25.712Z,20.03
2018-11-28T16:27:54.247Z,20.37
2018-11-28T16:30:22.761Z,19.43
2018-11-28T16:32:51.211Z,21.30
2018-11-28T16:35:19.715Z,22.27
2018-11-28T16:37:48.310Z,19.67
2018-11-28T16:40:17.223Z,21.97
2018-11-28T16:42:46.051Z,21.30
2018-11-28T16:45:18.430Z,20.23
2018-11-28T16:47:47.308Z,20.43
2018-11-28T16:50:16.523Z,18.97
2018-11-28T16:52:45.091Z,20.27
2018-11-28T16:55:14.636Z,20.47
2018-11-28T16:57:45.472Z,19.77
2018-11-28T17:00:15.307Z,20.37
2018-11-28T17:02:43.848Z,21.47
2018-11-28T17:05:14.318Z,20.07
2018-11-28T17:07:43.146Z,21.10
2018-11-28T17:13:08.254Z,19.03
2018-11-28T17:15:36.726Z,19.47
2018-11-28T17:18:05.937Z,18.50
2018-11-28T17:20:34.645Z,18.43
2018-11-28T17:23:03.220Z,18.83
2018-11-28T17:25:32.423Z,19.80
2018-11-28T17:30:53.341Z,19.10
2018-11-28T17:33:22.018Z,18.13
2018-11-28T17:35:50.535Z,20.30
2018-11-28T17:38:19.081Z,18.67
2018-11-28T17:40:47.607Z,18.57
2018-11-28T17:43:28.911Z,18.27
2018-11-28T17:45:57.444Z,21.27
2018-11-28T17:48:26.009Z,18.07
2018-11-28T17:50:54.515Z,17.27
2018-11-28T17:53:23.010Z,18.57
2018-11-28T17:55:53.080Z,17.37
2018-11-28T17:58:21.675Z,17.60
2018-11-28T18:00:50.258Z,16.40
2018-11-28T18:03:19.355Z,17.67
2018-11-28T18:05:47.850Z,16.97
2018-11-28T18:08:16.435Z,18.03
2018-11-28T18:10:45.008Z,18.53
2018-11-28T18:13:15.641Z,17.13
2018-11-28T18:15:49.234Z,16.47
2018-11-28T18:18:19.329Z,17.00
2018-11-28T18:20:50.371Z,16.73
2018-11-28T18:23:17.372Z,16.77
2018-11-28T18:25:46.494Z,18.65
2018-11-28T18:28:15.043Z,16.83
2018-11-28T18:30:43.649Z,15.87
2018-11-28T18:33:13.170Z,17.27
2018-11-28T18:35:41.726Z,17.07
2018-11-28T18:38:10.249Z,16.53
2018-11-28T18:40:39.567Z,15.97
2018-11-28T18:43:09.070Z,15.77
2018-11-28T18:45:39.615Z,16.50
2018-11-28T18:48:08.157Z,16.53
2018-11-28T18:50:36.703Z,16.80
2018-11-28T18:53:05.486Z,16.77
2018-11-28T18:55:34.022Z,15.53
2018-11-28T18:58:02.967Z,16.47
2018-11-28T19:00:31.435Z,15.27
2018-11-28T19:02:59.965Z,15.00
2018-11-28T19:05:28.491Z,15.70
2018-11-28T19:07:57.048Z,16.23
2018-11-28T19:10:26.575Z,15.13
2018-11-28T19:12:54.570Z,16.17
2018-11-28T19:15:25.357Z,16.20
2018-11-28T19:17:54.895Z,15.17
2018-11-28T19:20:23.851Z,15.50
2018-11-28T19:22:54.540Z,14.93
2018-11-28T19:25:24.177Z,14.93
2018-11-28T19:27:52.742Z,15.33
2018-11-28T19:30:32.208Z,13.20
2018-11-28T19:33:00.736Z,15.20
2018-11-28T19:35:29.366Z,15.43
2018-11-28T19:37:58.026Z,15.03
2018-11-28T19:40:38.160Z,13.67
2018-11-28T19:43:06.718Z,13.97
2018-11-28T19:45:35.225Z,13.33
2018-11-28T19:48:03.731Z,13.83
2018-11-28T19:50:33.823Z,14.40
2018-11-28T19:53:02.364Z,13.93
2018-11-28T19:55:30.853Z,14.10
2018-11-28T19:57:59.404Z,14.47
2018-11-28T20:00:27.989Z,14.27
2018-11-28T20:02:56.531Z,14.80
2018-11-28T20:05:25.095Z,13.80
2018-11-28T20:07:53.638Z,12.90
2018-11-28T20:10:22.932Z,14.17
2018-11-28T20:12:51.914Z,14.33
2018-11-28T20:15:25.706Z,14.40
2018-11-28T20:17:54.429Z,13.20
2018-11-28T20:20:23.040Z,13.53
2018-11-28T20:22:51.556Z,13.50
2018-11-28T20:25:21.309Z,14.30
2018-11-28T20:27:55.423Z,13.07
2018-11-28T20:30:31.342Z,12.78
2018-11-28T20:32:59.921Z,12.03
2018-11-28T20:35:28.508Z,11.97
2018-11-28T20:37:57.507Z,12.10
2018-11-28T20:40:26.106Z,12.43
2018-11-28T20:42:55.511Z,12.10
2018-11-28T20:45:24.186Z,12.10
2018-11-28T20:47:52.926Z,12.87
2018-11-28T20:50:24.034Z,12.00
2018-11-28T20:52:55.100Z,11.80
2018-11-28T20:55:23.032Z,11.50
2018-11-28T20:57:51.679Z,11.93
2018-11-28T21:00:21.786Z,11.33
2018-11-28T21:02:50.397Z,11.20
2018-11-28T21:05:19.149Z,10.53
2018-11-28T21:07:47.852Z,11.60
2018-11-28T21:10:22.040Z,11.37
2018-11-28T21:12:50.944Z,10.43
2018-11-28T21:15:19.669Z,11.03
2018-11-28T21:17:48.523Z,10.83
2018-11-28T21:20:19.247Z,13.40
2018-11-28T21:22:52.004Z,10.53
2018-11-28T21:25:20.628Z,12.50
2018-11-28T21:27:49.266Z,10.27
2018-11-28T21:30:20.812Z,10.17
2018-11-28T21:32:50.813Z,10.47
2018-11-28T21:35:23.804Z,10.27
2018-11-28T21:37:52.346Z,9.50
2018-11-28T21:40:20.979Z,9.50
2018-11-28T21:42:50.252Z,8.83
2018-11-28T21:45:19.976Z,9.53
2018-11-28T21:47:48.616Z,10.13
2018-11-28T21:50:18.075Z,9.87
2018-11-28T21:52:46.716Z,9.17
2018-11-28T21:55:18.182Z,9.33
2018-11-28T21:57:46.823Z,9.57
2018-11-28T22:00:17.246Z,9.57
2018-11-28T22:02:46.085Z,9.67
2018-11-28T22:05:15.379Z,9.47
2018-11-28T22:07:43.914Z,9.30
2018-11-28T22:10:13.539Z,8.43
2018-11-28T22:12:42.138Z,9.50
2018-11-28T22:15:14.381Z,9.40
2018-11-28T22:17:45.845Z,8.70
2018-11-28T22:20:14.846Z,8.93
2018-11-28T22:22:43.458Z,8.77
2018-11-28T22:25:21.448Z,8.33
2018-11-28T22:27:49.931Z,8.47
2018-11-28T22:30:19.812Z,8.57
2018-11-28T22:32:48.297Z,7.90
2018-11-28T22:35:17.039Z,9.13
2018-11-28T22:37:45.493Z,9.17
2018-11-28T22:40:24.309Z,9.30
2018-11-28T22:42:52.828Z,8.70
2018-11-28T22:45:22.416Z,7.80
2018-11-28T22:47:51.849Z,7.93
2018-11-28T22:50:20.279Z,8.40
2018-11-28T22:52:48.779Z,8.00
2018-11-28T22:55:18.003Z,10.13
2018-11-28T22:57:46.452Z,7.97
2018-11-28T23:00:26.996Z,8.07
2018-11-28T23:03:12.434Z,8.03
2018-11-28T23:05:44.111Z,8.17
2018-11-28T23:08:13.842Z,8.20
2018-11-28T23:10:42.439Z,7.60
2018-11-28T23:13:11.955Z,7.80
2018-11-28T23:15:40.540Z,8.53
2018-11-28T23:18:09.986Z,7.90
2018-11-28T23:20:38.515Z,7.27
2018-11-28T23:23:08.031Z,7.73
2018-11-28T23:25:36.976Z,7.80
2018-11-28T23:28:05.724Z,6.90
2018-11-28T23:30:34.271Z,7.17
2018-11-28T23:33:04.508Z,6.90
2018-11-28T23:35:33.041Z,7.23
2018-11-28T23:38:01.614Z,7.03
2018-11-28T23:40:30.143Z,7.40
2018-11-28T23:42:58.743Z,7.20
2018-11-28T23:45:27.324Z,8.30
2018-11-28T23:47:55.830Z,7.27
2018-11-28T23:50:25.085Z,6.70
2018-11-28T23:52:55.220Z,6.70
2018-11-28T23:55:25.458Z,6.27
2018-11-28T23:57:54.114Z,7.10
